createdAt,value
2019-05-20T00:01:52.712Z,11.08
2019-05-20T00:04:56.410Z,11.73
2019-05-20T00:08:00.037Z,11.88
2019-05-20T00:11:03.873Z,10.53
2019-05-20T00:14:07.528Z,10.82
2019-05-20T00:17:11.308Z,11.63
2019-05-20T00:20:15.064Z,10.90
2019-05-20T00:23:18.691Z,11.83
2019-05-20T00:26:22.398Z,11.90
2019-05-20T00:29:29.081Z,12.40
2019-05-20T00:32:41.358Z,11.43
2019-05-20T00:35:39.678Z,13.58
2019-05-20T00:38:46.556Z,12.60
2019-05-20T00:41:57.945Z,13.83
2019-05-20T00:45:05.924Z,14.05
2019-05-20T00:48:15.432Z,13.43
2019-05-20T00:51:19.060Z,13.05
2019-05-20T00:54:22.793Z,12.95
2019-05-20T00:57:26.402Z,13.28
2019-05-20T01:00:32.474Z,12.47
2019-05-20T01:03:35.853Z,13.88
2019-05-20T01:06:39.469Z,13.68
2019-05-20T01:09:47.497Z,13.22
2019-05-20T01:12:50.256Z,14.47
2019-05-20T01:15:53.918Z,13.72
2019-05-20T01:18:59.094Z,13.80
2019-05-20T01:22:02.720Z,13.90
2019-05-20T01:25:06.944Z,14.43
2019-05-20T01:28:10.567Z,14.90
2019-05-20T01:31:14.306Z,15.13
2019-05-20T01:34:17.998Z,14.70
2019-05-20T01:37:21.665Z,14.40
2019-05-20T01:40:25.297Z,14.07
2019-05-20T01:43:30.520Z,14.73
2019-05-20T01:46:35.734Z,15.83
2019-05-20T01:49:40.914Z,17.25
2019-05-20T01:52:44.537Z,15.40
2019-05-20T01:55:49.851Z,16.73
2019-05-20T01:58:55.097Z,17.77
2019-05-20T02:02:01.451Z,17.37
2019-05-20T02:05:06.635Z,18.35
2019-05-20T02:08:10.228Z,16.65
2019-05-20T02:11:13.921Z,17.73
2019-05-20T02:14:24.894Z,16.70
2019-05-20T02:17:30.067Z,16.55
2019-05-20T02:20:33.743Z,17.77
2019-05-20T02:23:37.382Z,17.32
2019-05-20T02:26:42.603Z,17.25
2019-05-20T02:29:46.236Z,17.90
2019-05-20T02:32:49.871Z,16.93
2019-05-20T02:35:55.163Z,18.23
2019-05-20T02:39:00.394Z,19.40
2019-05-20T02:42:07.096Z,17.85
2019-05-20T02:45:11.030Z,18.02
2019-05-20T02:48:14.704Z,17.07
2019-05-20T02:51:22.788Z,17.12
2019-05-20T02:54:28.087Z,17.00
2019-05-20T02:57:33.303Z,16.10
2019-05-20T03:00:39.356Z,16.87
2019-05-20T03:03:42.862Z,17.10
2019-05-20T03:06:46.430Z,17.23
2019-05-20T03:09:51.697Z,16.27
2019-05-20T03:12:56.841Z,16.35
2019-05-20T03:16:02.752Z,16.48
2019-05-20T03:19:06.322Z,17.67
2019-05-20T03:22:09.861Z,17.95
2019-05-20T03:25:17.764Z,17.45
2019-05-20T03:28:22.849Z,18.40
2019-05-20T03:31:29.256Z,18.45
2019-05-20T03:34:46.608Z,17.67
2019-05-20T03:37:38.362Z,17.87
2019-05-20T03:40:44.495Z,18.07
2019-05-20T03:43:48.116Z,18.30
2019-05-20T03:46:53.500Z,18.05
2019-05-20T03:49:57.063Z,18.77
2019-05-20T03:53:02.322Z,19.25
2019-05-20T03:56:05.934Z,19.57
2019-05-20T03:59:09.478Z,19.07
2019-05-20T04:02:14.359Z,18.87
2019-05-20T04:05:18.256Z,18.62
2019-05-20T04:08:22.017Z,20.17
2019-05-20T04:11:27.701Z,19.25
2019-05-20T04:14:32.853Z,19.70
2019-05-20T04:17:36.396Z,19.32
2019-05-20T04:20:42.451Z,20.40
2019-05-20T04:23:50.816Z,20.60
2019-05-20T04:26:54.624Z,21.97
2019-05-20T04:29:58.348Z,25.92
2019-05-20T04:33:02.049Z,27.65
2019-05-20T04:36:07.282Z,30.50
2019-05-20T04:39:10.955Z,28.52
2019-05-20T04:42:16.150Z,32.05
2019-05-20T04:45:19.808Z,29.45
2019-05-20T04:48:25.345Z,28.95
2019-05-20T04:51:29.076Z,29.42
2019-05-20T04:54:32.772Z,27.50
2019-05-20T04:57:36.450Z,28.60
2019-05-20T05:00:49.131Z,26.40
2019-05-20T05:03:52.796Z,26.23
2019-05-20T05:06:56.473Z,25.35
2019-05-20T05:10:03.165Z,25.70
2019-05-20T05:13:06.955Z,24.92
2019-05-20T05:16:10.666Z,24.80
2019-05-20T05:19:14.424Z,24.25
2019-05-20T05:22:18.130Z,23.98
2019-05-20T05:25:22.064Z,23.83
2019-05-20T05:28:25.989Z,25.05
2019-05-20T05:31:29.645Z,22.37
2019-05-20T05:34:33.283Z,22.85
2019-05-20T05:37:36.904Z,23.98
2019-05-20T05:40:40.715Z,21.45
2019-05-20T05:43:44.329Z,22.73
2019-05-20T05:46:48.007Z,21.60
2019-05-20T05:49:51.719Z,22.27
2019-05-20T05:52:55.477Z,22.48
2019-05-20T05:55:59.116Z,22.13
2019-05-20T05:59:02.777Z,22.50
2019-05-20T06:02:06.419Z,21.33
2019-05-20T06:05:10.958Z,20.08
2019-05-20T06:08:14.737Z,20.97
2019-05-20T06:11:18.382Z,20.72
2019-05-20T06:14:22.037Z,19.80
2019-05-20T06:17:25.640Z,19.45
2019-05-20T06:20:29.332Z,18.05
2019-05-20T06:23:32.957Z,18.00
2019-05-20T06:26:37.204Z,17.30
2019-05-20T06:29:40.839Z,16.48
2019-05-20T06:32:44.640Z,16.15
2019-05-20T06:35:49.074Z,16.40
2019-05-20T06:38:56.825Z,16.57
2019-05-20T06:42:00.463Z,15.98
2019-05-20T06:45:06.256Z,16.25
2019-05-20T06:48:09.950Z,16.17
2019-05-20T06:51:13.605Z,16.73
2019-05-20T06:54:17.336Z,16.70
2019-05-20T06:57:23.856Z,16.30
2019-05-20T07:00:34.428Z,15.55
2019-05-20T07:03:38.065Z,15.45
2019-05-20T07:06:46.535Z,15.95
2019-05-20T07:09:47.265Z,15.28
2019-05-20T07:12:50.869Z,15.60
2019-05-20T07:15:54.552Z,16.40
2019-05-20T07:18:58.210Z,14.68
2019-05-20T07:22:01.851Z,15.03
2019-05-20T07:25:06.854Z,14.53
2019-05-20T07:28:10.556Z,14.45
2019-05-20T07:31:14.221Z,15.35
2019-05-20T07:34:18.117Z,15.23
2019-05-20T07:37:21.882Z,13.88
2019-05-20T07:40:32.593Z,14.10
2019-05-20T07:43:36.278Z,12.37
2019-05-20T07:46:40.105Z,12.13
2019-05-20T07:49:44.271Z,11.97
2019-05-20T07:52:48.089Z,12.63
2019-05-20T07:55:54.804Z,12.30
2019-05-20T07:59:01.518Z,13.25
2019-05-20T08:02:05.269Z,12.45
2019-05-20T08:05:09.998Z,12.78
2019-05-20T08:08:14.108Z,13.70
2019-05-20T08:11:17.935Z,12.82
2019-05-20T08:14:21.747Z,12.50
2019-05-20T08:17:25.625Z,13.70
2019-05-20T08:20:29.284Z,12.75
2019-05-20T08:23:33.117Z,11.97
2019-05-20T08:26:36.989Z,12.45
2019-05-20T08:29:40.602Z,13.60
2019-05-20T08:32:44.265Z,12.93
2019-05-20T08:35:47.867Z,14.47
2019-05-20T08:38:51.670Z,13.43
2019-05-20T08:41:55.313Z,14.95
2019-05-20T08:44:58.951Z,14.50
2019-05-20T08:48:02.594Z,14.10
2019-05-20T08:51:06.235Z,12.68
2019-05-20T08:54:09.904Z,13.13
2019-05-20T08:57:13.682Z,12.73
2019-05-20T09:00:23.975Z,14.00
2019-05-20T09:03:30.346Z,13.45
2019-05-20T09:06:32.924Z,12.82
2019-05-20T09:09:36.662Z,13.10
2019-05-20T09:12:40.344Z,13.60
2019-05-20T09:15:45.471Z,14.95
2019-05-20T09:18:49.373Z,13.40
2019-05-20T09:21:56.818Z,14.07
2019-05-20T09:25:00.444Z,13.48
2019-05-20T09:28:04.252Z,12.68
2019-05-20T09:31:08.802Z,14.35
2019-05-20T09:34:12.411Z,13.32
2019-05-20T09:37:16.076Z,12.50
2019-05-20T09:40:25.410Z,14.10
2019-05-20T09:43:29.057Z,13.53
2019-05-20T09:46:32.704Z,13.98
2019-05-20T09:49:36.405Z,14.33
2019-05-20T09:52:40.141Z,14.28
2019-05-20T09:55:43.818Z,15.28
2019-05-20T09:58:47.454Z,15.60
2019-05-20T10:01:51.180Z,15.00
2019-05-20T10:04:54.804Z,15.80
2019-05-20T10:07:59.330Z,14.35
2019-05-20T10:11:02.954Z,14.75
2019-05-20T10:14:06.691Z,14.53
2019-05-20T10:17:10.299Z,15.00
2019-05-20T10:20:15.201Z,15.32
2019-05-20T10:23:18.832Z,16.27
2019-05-20T10:26:22.490Z,14.43
2019-05-20T10:29:26.125Z,16.05
2019-05-20T10:32:29.802Z,14.83
2019-05-20T10:35:33.430Z,15.80
2019-05-20T10:38:54.955Z,15.83
2019-05-20T10:41:42.504Z,15.53
2019-05-20T10:44:46.164Z,15.23
2019-05-20T10:47:49.876Z,15.98
2019-05-20T10:50:53.491Z,15.08
2019-05-20T10:53:57.150Z,14.05
2019-05-20T10:57:00.816Z,13.20
2019-05-20T11:00:08.816Z,13.72
2019-05-20T11:03:12.437Z,13.93
2019-05-20T11:06:16.138Z,14.80
2019-05-20T11:09:19.745Z,19.10
2019-05-20T11:12:23.484Z,13.10
2019-05-20T11:15:27.147Z,12.13
2019-05-20T11:18:30.837Z,12.45
2019-05-20T11:21:34.529Z,12.55
2019-05-20T11:24:38.275Z,12.13
2019-05-20T11:27:41.915Z,11.50
2019-05-20T11:30:45.539Z,11.33
2019-05-20T11:33:49.208Z,12.90
2019-05-20T11:36:52.852Z,12.95
2019-05-20T11:39:56.536Z,12.85
2019-05-20T11:43:00.155Z,11.97
2019-05-20T11:46:03.906Z,11.90
2019-05-20T11:49:07.550Z,12.10
2019-05-20T11:52:11.254Z,11.97
2019-05-20T11:55:14.994Z,11.00
2019-05-20T11:58:18.652Z,11.45
2019-05-20T12:01:22.356Z,13.25
2019-05-20T12:04:25.952Z,12.95
2019-05-20T12:07:29.618Z,13.03
2019-05-20T12:10:33.317Z,12.68
2019-05-20T12:13:36.951Z,13.32
2019-05-20T12:16:40.789Z,14.53
2019-05-20T12:19:44.416Z,14.07
2019-05-20T12:22:49.782Z,13.98
2019-05-20T12:25:53.406Z,13.62
2019-05-20T12:28:58.903Z,13.53
2019-05-20T12:32:03.641Z,14.85
2019-05-20T12:35:08.018Z,13.80
2019-05-20T12:38:13.381Z,14.47
2019-05-20T12:41:17.013Z,14.65
2019-05-20T12:44:20.705Z,14.85
2019-05-20T12:47:24.329Z,13.30
2019-05-20T12:50:28.033Z,13.65
2019-05-20T12:53:31.717Z,13.53
2019-05-20T12:56:35.587Z,13.80
2019-05-20T12:59:39.269Z,13.93
2019-05-20T13:02:42.889Z,13.40
2019-05-20T13:05:46.573Z,13.60
2019-05-20T13:08:51.793Z,14.68
2019-05-20T13:11:55.517Z,13.95
2019-05-20T13:14:59.160Z,13.40
2019-05-20T13:18:02.842Z,13.48
2019-05-20T13:21:06.492Z,12.58
2019-05-20T13:24:10.167Z,13.22
2019-05-20T13:27:15.574Z,14.13
2019-05-20T13:30:20.699Z,13.28
2019-05-20T13:33:24.265Z,12.37
2019-05-20T13:36:27.979Z,12.37
2019-05-20T13:39:31.612Z,12.45
2019-05-20T13:42:36.911Z,12.73
2019-05-20T13:45:40.603Z,12.43
2019-05-20T13:48:44.286Z,13.98
2019-05-20T13:51:48.042Z,12.98
2019-05-20T13:54:51.728Z,15.13
2019-05-20T13:57:55.471Z,14.38
2019-05-20T14:00:59.361Z,15.70
2019-05-20T14:04:04.654Z,14.58
2019-05-20T14:07:08.269Z,15.18
2019-05-20T14:10:12.465Z,14.87
2019-05-20T14:13:16.113Z,14.05
2019-05-20T14:16:19.763Z,14.45
2019-05-20T14:19:29.345Z,15.28
2019-05-20T14:22:30.309Z,13.78
2019-05-20T14:25:33.973Z,10.50
2019-05-20T14:28:37.642Z,8.88
2019-05-20T14:31:42.513Z,8.40
2019-05-20T14:34:46.200Z,7.55
2019-05-20T14:37:49.791Z,6.83
2019-05-20T14:40:55.350Z,7.10
2019-05-20T14:44:00.484Z,7.60
2019-05-20T14:47:04.146Z,6.90
2019-05-20T14:50:14.631Z,6.47
2019-05-20T14:53:19.778Z,6.30
2019-05-20T14:56:31.864Z,6.58
2019-05-20T14:59:43.523Z,6.45
2019-05-20T15:02:47.229Z,6.83
2019-05-20T15:05:51.201Z,6.83
2019-05-20T15:08:55.286Z,6.42
2019-05-20T15:11:58.900Z,6.10
2019-05-20T15:15:02.643Z,6.20
2019-05-20T15:18:06.346Z,6.58
2019-05-20T15:21:10.008Z,6.05
2019-05-20T15:24:13.717Z,6.12
2019-05-20T15:27:17.412Z,6.25
2019-05-20T15:30:21.167Z,6.20
2019-05-20T15:33:24.872Z,6.50
2019-05-20T15:36:28.495Z,6.50
2019-05-20T15:39:32.183Z,6.90
2019-05-20T15:42:35.827Z,6.22
2019-05-20T15:45:39.450Z,6.12
2019-05-20T15:48:43.252Z,6.33
2019-05-20T15:51:46.901Z,6.25
2019-05-20T15:54:51.860Z,6.92
2019-05-20T15:57:55.482Z,6.50
2019-05-20T16:00:59.166Z,6.72
2019-05-20T16:04:02.818Z,6.58
2019-05-20T16:07:06.540Z,6.78
2019-05-20T16:10:10.292Z,6.70
2019-05-20T16:13:14.018Z,7.55
2019-05-20T16:16:17.634Z,6.92
2019-05-20T16:19:21.360Z,6.45
2019-05-20T16:22:25.035Z,6.50
2019-05-20T16:25:28.781Z,6.17
2019-05-20T16:28:32.479Z,6.67
2019-05-20T16:31:36.181Z,7.08
2019-05-20T16:34:39.808Z,6.10
2019-05-20T16:37:43.484Z,6.58
2019-05-20T16:40:47.159Z,7.67
2019-05-20T16:43:51.079Z,6.80
2019-05-20T16:46:54.708Z,6.42
2019-05-20T16:50:01.614Z,6.17
2019-05-20T16:53:08.393Z,7.50
2019-05-20T16:56:20.728Z,6.65
2019-05-20T16:59:24.382Z,6.67
2019-05-20T17:02:30.278Z,6.50
2019-05-20T17:05:34.162Z,6.75
2019-05-20T17:08:37.770Z,7.45
2019-05-20T17:11:41.384Z,7.25
2019-05-20T17:14:45.110Z,7.05
2019-05-20T17:17:48.851Z,8.28
2019-05-20T17:20:52.675Z,10.32
2019-05-20T17:23:57.810Z,12.28
2019-05-20T17:27:01.443Z,11.12
2019-05-20T17:30:09.583Z,10.72
2019-05-20T17:33:15.932Z,12.75
2019-05-20T17:36:19.608Z,10.72
2019-05-20T17:39:23.350Z,10.70
2019-05-20T17:42:27.136Z,11.45
2019-05-20T17:45:30.805Z,11.90
2019-05-20T17:48:34.801Z,12.40
2019-05-20T17:51:38.861Z,13.70
2019-05-20T17:54:42.513Z,11.60
2019-05-20T17:57:46.238Z,12.40
2019-05-20T18:01:14.229Z,11.88
2019-05-20T18:04:07.382Z,12.30
2019-05-20T18:07:18.841Z,11.57
2019-05-20T18:10:23.767Z,11.80
2019-05-20T18:13:27.565Z,11.38
2019-05-20T18:16:31.349Z,11.78
2019-05-20T18:19:34.972Z,11.88
2019-05-20T18:22:38.730Z,10.75
2019-05-20T18:25:42.506Z,13.53
2019-05-20T18:28:47.899Z,12.45
2019-05-20T18:31:56.075Z,10.93
2019-05-20T18:34:59.685Z,12.50
2019-05-20T18:38:03.875Z,12.70
2019-05-20T18:41:07.581Z,13.05
2019-05-20T18:44:13.296Z,13.83
2019-05-20T18:47:16.588Z,14.30
2019-05-20T18:50:20.396Z,16.65
2019-05-20T18:53:24.088Z,17.27
2019-05-20T18:56:27.847Z,17.75
2019-05-20T18:59:31.614Z,20.25
2019-05-20T19:02:35.280Z,21.65
2019-05-20T19:05:40.660Z,22.50
2019-05-20T19:09:04.528Z,22.70
2019-05-20T19:12:10.576Z,22.95
2019-05-20T19:15:19.002Z,22.27
2019-05-20T19:18:24.150Z,21.85
2019-05-20T19:21:27.834Z,20.32
2019-05-20T19:24:31.525Z,20.88
2019-05-20T19:27:35.300Z,20.43
2019-05-20T19:30:39.076Z,20.50
2019-05-20T19:33:42.764Z,20.45
2019-05-20T19:36:46.512Z,19.95
2019-05-20T19:39:50.240Z,27.87
2019-05-20T19:42:56.018Z,17.12
2019-05-20T19:45:59.349Z,17.15
2019-05-20T19:49:05.725Z,17.90
2019-05-20T19:52:09.662Z,17.48
2019-05-20T19:55:13.455Z,17.57
2019-05-20T19:58:17.174Z,17.27
2019-05-20T20:01:20.788Z,17.82
2019-05-20T20:04:24.443Z,16.85
2019-05-20T20:07:28.879Z,16.85
2019-05-20T20:10:32.554Z,14.53
2019-05-20T20:13:36.227Z,14.98
2019-05-20T20:16:39.903Z,15.10
2019-05-20T20:19:43.603Z,15.15
2019-05-20T20:22:47.271Z,16.12
2019-05-20T20:25:50.902Z,15.53
2019-05-20T20:28:54.637Z,14.15
2019-05-20T20:31:58.321Z,14.53
2019-05-20T20:35:02.195Z,13.98
2019-05-20T20:38:05.843Z,14.83
2019-05-20T20:41:09.519Z,14.90
2019-05-20T20:44:13.142Z,14.80
2019-05-20T20:47:16.811Z,13.93
2019-05-20T20:50:20.497Z,14.83
2019-05-20T20:53:24.150Z,15.05
2019-05-20T20:56:27.776Z,16.00
2019-05-20T20:59:31.521Z,16.37
2019-05-20T21:02:35.170Z,15.05
2019-05-20T21:05:38.872Z,15.32
2019-05-20T21:08:42.492Z,16.62
2019-05-20T21:11:46.155Z,16.30
2019-05-20T21:14:49.797Z,16.50
2019-05-20T21:17:53.463Z,16.27
2019-05-20T21:20:57.082Z,17.40
2019-05-20T21:24:00.744Z,16.97
2019-05-20T21:27:04.698Z,18.00
2019-05-20T21:30:09.698Z,18.00
2019-05-20T21:33:13.323Z,17.00
2019-05-20T21:36:17.038Z,18.02
2019-05-20T21:39:28.461Z,17.42
2019-05-20T21:42:29.477Z,16.55
2019-05-20T21:45:40.644Z,16.82
2019-05-20T21:48:44.304Z,17.70
2019-05-20T21:51:47.932Z,17.52
2019-05-20T21:54:54.592Z,18.32
2019-05-20T21:57:58.208Z,17.85
2019-05-20T22:01:02.205Z,18.15
2019-05-20T22:04:08.071Z,20.15
2019-05-20T22:07:11.730Z,20.40
2019-05-20T22:10:19.754Z,20.75
2019-05-20T22:13:23.406Z,23.02
2019-05-20T22:16:29.697Z,25.52
2019-05-20T22:19:32.439Z,23.77
2019-05-20T22:22:43.933Z,24.98
2019-05-20T22:25:50.705Z,26.17
2019-05-20T22:28:54.397Z,25.43
2019-05-20T22:32:22.189Z,26.23
2019-05-20T22:35:27.494Z,24.92
2019-05-20T22:38:31.959Z,27.67
2019-05-20T22:41:38.548Z,27.20
2019-05-20T22:44:42.244Z,30.80
2019-05-20T22:47:45.869Z,32.23
2019-05-20T22:50:49.708Z,32.03
2019-05-20T22:53:53.335Z,32.58
2019-05-20T22:56:59.972Z,32.78
2019-05-20T23:00:04.754Z,30.97
2019-05-20T23:03:08.439Z,28.30
2019-05-20T23:06:12.066Z,26.68
2019-05-20T23:13:39.881Z,25.32
2019-05-20T23:16:14.843Z,24.67
2019-05-20T23:19:18.501Z,24.90
2019-05-20T23:22:21.868Z,25.10
2019-05-20T23:25:25.471Z,22.90
2019-05-20T23:28:30.600Z,24.72
2019-05-20T23:31:34.261Z,25.37
2019-05-20T23:34:37.860Z,25.10
2019-05-20T23:37:41.402Z,25.27
2019-05-20T23:40:44.970Z,23.52
2019-05-20T23:43:48.886Z,23.65
2019-05-20T23:46:52.449Z,23.05
2019-05-20T23:49:55.997Z,21.85
2019-05-20T23:53:01.175Z,21.07
2019-05-20T23:56:04.892Z,21.52
2019-05-20T23:59:08.511Z,20.97
